sensor_id;sensor_type;location;lat;lon;timestamp;pressure;altitude;pressure_sealevel;temperature;humidity
3968;BME280;9221;42.646;23.380;2024-03-08T00:00:09;94558.13;;;7.11;98.43
3968;BME280;9221;42.646;23.380;2024-03-08T00:02:36;94552.69;;;7.03;98.21
3968;BME280;9221;42.646;23.380;2024-03-08T00:05:04;94541.63;;;7.00;98.11
3968;BME280;9221;42.646;23.380;2024-03-08T00:07:30;94554.56;;;7.13;98.00
3968;BME280;9221;42.646;23.380;2024-03-08T00:09:55;94562.16;;;7.16;97.93
3968;BME280;9221;42.646;23.380;2024-03-08T00:12:21;94559.78;;;7.13;98.14
3968;BME280;9221;42.646;23.380;2024-03-08T00:14:46;94561.97;;;7.07;98.09
3968;BME280;9221;42.646;23.380;2024-03-08T00:17:12;94560.56;;;7.03;98.05
3968;BME280;9221;42.646;23.380;2024-03-08T00:19:37;94560.47;;;7.15;97.74
3968;BME280;9221;42.646;23.380;2024-03-08T00:22:02;94520.16;;;6.85;98.25
3968;BME280;9221;42.646;23.380;2024-03-08T00:24:28;94553.28;;;7.07;98.69
3968;BME280;9221;42.646;23.380;2024-03-08T00:26:54;94543.31;;;7.01;99.10
3968;BME280;9221;42.646;23.380;2024-03-08T00:29:20;94547.06;;;7.08;99.12
3968;BME280;9221;42.646;23.380;2024-03-08T00:31:47;94554.06;;;6.98;98.77
3968;BME280;9221;42.646;23.380;2024-03-08T00:34:13;94545.66;;;7.04;98.77
3968;BME280;9221;42.646;23.380;2024-03-08T00:36:39;94533.91;;;6.98;98.89
3968;BME280;9221;42.646;23.380;2024-03-08T00:39:04;94529.00;;;6.84;98.42
3968;BME280;9221;42.646;23.380;2024-03-08T00:41:32;94548.00;;;6.97;98.73
3968;BME280;9221;42.646;23.380;2024-03-08T00:43:58;94546.38;;;6.85;99.08
3968;BME280;9221;42.646;23.380;2024-03-08T00:46:23;94535.88;;;6.85;98.93
3968;BME280;9221;42.646;23.380;2024-03-08T00:48:49;94537.00;;;6.82;99.88
3968;BME280;9221;42.646;23.380;2024-03-08T00:51:14;94529.25;;;6.81;99.47
3968;BME280;9221;42.646;23.380;2024-03-08T00:53:43;94527.03;;;6.76;99.59
3968;BME280;9221;42.646;23.380;2024-03-08T00:56:09;94529.31;;;6.90;100.00
3968;BME280;9221;42.646;23.380;2024-03-08T00:58:37;94526.81;;;6.89;99.92
3968;BME280;9221;42.646;23.380;2024-03-08T01:01:03;94523.75;;;6.84;99.71
3968;BME280;9221;42.646;23.380;2024-03-08T01:03:32;94524.00;;;6.81;99.99
3968;BME280;9221;42.646;23.380;2024-03-08T01:05:59;94511.16;;;6.77;100.00
3968;BME280;9221;42.646;23.380;2024-03-08T01:08:26;94521.97;;;6.84;100.00
3968;BME280;9221;42.646;23.380;2024-03-08T01:10:52;94511.06;;;6.89;100.00
3968;BME280;9221;42.646;23.380;2024-03-08T01:13:18;94511.34;;;6.86;100.00
3968;BME280;9221;42.646;23.380;2024-03-08T01:15:45;94505.00;;;6.88;100.00
3968;BME280;9221;42.646;23.380;2024-03-08T01:18:11;94506.09;;;6.86;100.00
3968;BME280;9221;42.646;23.380;2024-03-08T01:20:37;94502.16;;;6.70;100.00
3968;BME280;9221;42.646;23.380;2024-03-08T01:23:02;94511.69;;;6.71;100.00
3968;BME280;9221;42.646;23.380;2024-03-08T01:25:31;94526.69;;;6.69;100.00
3968;BME280;9221;42.646;23.380;2024-03-08T01:27:57;94508.00;;;6.74;100.00
3968;BME280;9221;42.646;23.380;2024-03-08T01:30:22;94505.88;;;6.68;100.00
3968;BME280;9221;42.646;23.380;2024-03-08T01:32:48;94506.81;;;6.67;100.00
3968;BME280;9221;42.646;23.380;2024-03-08T01:35:14;94501.03;;;6.63;99.70
3968;BME280;9221;42.646;23.380;2024-03-08T01:37:39;94486.06;;;6.54;99.78
3968;BME280;9221;42.646;23.380;2024-03-08T01:40:05;94503.78;;;6.62;99.79
3968;BME280;9221;42.646;23.380;2024-03-08T01:42:34;94492.06;;;6.44;99.44
3968;BME280;9221;42.646;23.380;2024-03-08T01:45:05;94488.09;;;6.50;99.41
3968;BME280;9221;42.646;23.380;2024-03-08T01:47:32;94501.53;;;6.57;99.50
3968;BME280;9221;42.646;23.380;2024-03-08T01:49:58;94502.47;;;6.56;100.00
3968;BME280;9221;42.646;23.380;2024-03-08T01:52:28;94495.78;;;6.63;100.00
3968;BME280;9221;42.646;23.380;2024-03-08T01:54:54;94498.81;;;6.68;100.00
3968;BME280;9221;42.646;23.380;2024-03-08T01:57:20;94488.34;;;6.68;100.00
3968;BME280;9221;42.646;23.380;2024-03-08T01:59:46;94496.91;;;6.70;99.19
3968;BME280;9221;42.646;23.380;2024-03-08T02:02:14;94498.81;;;6.68;99.02
3968;BME280;9221;42.646;23.380;2024-03-08T02:04:43;94499.09;;;6.65;98.67
3968;BME280;9221;42.646;23.380;2024-03-08T02:07:08;94495.78;;;6.63;99.00
3968;BME280;9221;42.646;23.380;2024-03-08T02:09:34;94493.84;;;6.65;99.28
3968;BME280;9221;42.646;23.380;2024-03-08T02:11:59;94499.34;;;6.62;98.81
3968;BME280;9221;42.646;23.380;2024-03-08T02:14:25;94501.84;;;6.64;98.43
3968;BME280;9221;42.646;23.380;2024-03-08T02:16:50;94497.31;;;6.66;99.02
3968;BME280;9221;42.646;23.380;2024-03-08T02:19:16;94493.59;;;6.68;98.99
3968;BME280;9221;42.646;23.380;2024-03-08T02:21:42;94496.16;;;6.80;98.47
3968;BME280;9221;42.646;23.380;2024-03-08T02:24:08;94489.56;;;6.85;98.27
3968;BME280;9221;42.646;23.380;2024-03-08T02:26:34;94505.84;;;6.89;98.79
3968;BME280;9221;42.646;23.380;2024-03-08T02:29:00;94494.22;;;6.82;98.40
3968;BME280;9221;42.646;23.380;2024-03-08T02:31:25;94503.56;;;6.74;98.86
3968;BME280;9221;42.646;23.380;2024-03-08T02:33:50;94491.94;;;6.67;98.82
3968;BME280;9221;42.646;23.380;2024-03-08T02:36:16;94502.84;;;6.72;98.40
3968;BME280;9221;42.646;23.380;2024-03-08T02:38:41;94508.28;;;6.81;97.99
3968;BME280;9221;42.646;23.380;2024-03-08T02:41:07;94508.59;;;6.87;98.19
3968;BME280;9221;42.646;23.380;2024-03-08T02:43:34;94506.41;;;6.92;98.30
3968;BME280;9221;42.646;23.380;2024-03-08T02:46:00;94505.59;;;6.92;97.65
3968;BME280;9221;42.646;23.380;2024-03-08T02:48:25;94512.50;;;6.93;97.38
3968;BME280;9221;42.646;23.380;2024-03-08T02:50:51;94510.84;;;6.92;96.47
3968;BME280;9221;42.646;23.380;2024-03-08T02:53:16;94515.81;;;6.95;96.53
3968;BME280;9221;42.646;23.380;2024-03-08T02:55:44;94506.72;;;6.99;96.14
3968;BME280;9221;42.646;23.380;2024-03-08T02:58:09;94509.47;;;6.98;95.96
3968;BME280;9221;42.646;23.380;2024-03-08T03:00:36;94514.31;;;7.02;96.17
3968;BME280;9221;42.646;23.380;2024-03-08T03:03:02;94508.41;;;7.00;95.71
3968;BME280;9221;42.646;23.380;2024-03-08T03:05:28;94520.28;;;7.04;95.31
3968;BME280;9221;42.646;23.380;2024-03-08T03:07:55;94511.97;;;6.99;94.66
3968;BME280;9221;42.646;23.380;2024-03-08T03:10:21;94517.63;;;6.94;94.50
3968;BME280;9221;42.646;23.380;2024-03-08T03:12:47;94524.91;;;6.91;94.00
3968;BME280;9221;42.646;23.380;2024-03-08T03:15:14;94516.09;;;6.92;92.79
3968;BME280;9221;42.646;23.380;2024-03-08T03:17:48;94534.56;;;6.90;92.60
3968;BME280;9221;42.646;23.380;2024-03-08T03:20:14;94526.31;;;6.95;92.50
3968;BME280;9221;42.646;23.380;2024-03-08T03:22:40;94519.38;;;6.94;93.27
3968;BME280;9221;42.646;23.380;2024-03-08T03:25:07;94511.06;;;6.89;93.18
3968;BME280;9221;42.646;23.380;2024-03-08T03:27:34;94521.06;;;6.95;92.36
3968;BME280;9221;42.646;23.380;2024-03-08T03:30:00;94527.03;;;6.97;91.91
3968;BME280;9221;42.646;23.380;2024-03-08T03:32:46;94539.41;;;6.95;91.68
3968;BME280;9221;42.646;23.380;2024-03-08T03:35:15;94535.38;;;6.91;91.28
3968;BME280;9221;42.646;23.380;2024-03-08T03:37:41;94534.13;;;6.85;90.94
3968;BME280;9221;42.646;23.380;2024-03-08T03:40:16;94541.13;;;6.85;91.19
3968;BME280;9221;42.646;23.380;2024-03-08T03:42:44;94543.06;;;6.83;90.25
3968;BME280;9221;42.646;23.380;2024-03-08T03:45:29;94545.94;;;6.80;90.03
3968;BME280;9221;42.646;23.380;2024-03-08T03:47:55;94529.31;;;6.69;89.69
3968;BME280;9221;42.646;23.380;2024-03-08T03:50:21;94541.94;;;6.75;89.29
3968;BME280;9221;42.646;23.380;2024-03-08T03:52:47;94550.41;;;6.68;89.12
3968;BME280;9221;42.646;23.380;2024-03-08T03:55:14;94514.16;;;6.52;88.64
3968;BME280;9221;42.646;23.380;2024-03-08T03:57:40;94550.16;;;6.71;88.03
3968;BME280;9221;42.646;23.380;2024-03-08T04:00:06;94552.91;;;6.69;87.96
3968;BME280;9221;42.646;23.380;2024-03-08T04:02:38;94553.28;;;6.65;88.03
3968;BME280;9221;42.646;23.380;2024-03-08T04:05:05;94544.84;;;6.61;87.58
3968;BME280;9221;42.646;23.380;2024-03-08T04:07:31;94555.38;;;6.71;87.73
3968;BME280;9221;42.646;23.380;2024-03-08T04:09:56;94554.44;;;6.72;88.48
3968;BME280;9221;42.646;23.380;2024-03-08T04:12:22;94565.06;;;6.70;88.47
3968;BME280;9221;42.646;23.380;2024-03-08T04:14:48;94566.00;;;6.69;87.92
3968;BME280;9221;42.646;23.380;2024-03-08T04:17:14;94568.06;;;6.66;87.32
3968;BME280;9221;42.646;23.380;2024-03-08T04:19:39;94566.59;;;6.73;87.59
3968;BME280;9221;42.646;23.380;2024-03-08T04:22:06;94552.91;;;6.69;87.70
3968;BME280;9221;42.646;23.380;2024-03-08T04:24:33;94583.53;;;6.69;87.02
3968;BME280;9221;42.646;23.380;2024-03-08T04:26:58;94563.06;;;6.63;86.93
3968;BME280;9221;42.646;23.380;2024-03-08T04:29:24;94572.91;;;6.70;87.46
3968;BME280;9221;42.646;23.380;2024-03-08T04:31:49;94594.69;;;6.71;86.88
3968;BME280;9221;42.646;23.380;2024-03-08T04:34:21;94588.63;;;6.70;87.20
3968;BME280;9221;42.646;23.380;2024-03-08T04:36:48;94588.50;;;6.72;87.04
3968;BME280;9221;42.646;23.380;2024-03-08T04:39:14;94586.00;;;6.70;86.71
3968;BME280;9221;42.646;23.380;2024-03-08T04:41:41;94591.59;;;6.77;87.45
3968;BME280;9221;42.646;23.380;2024-03-08T04:44:10;94580.78;;;6.70;87.31
3968;BME280;9221;42.646;23.380;2024-03-08T04:46:35;94600.91;;;6.70;86.74
3968;BME280;9221;42.646;23.380;2024-03-08T04:49:01;94596.75;;;6.67;86.96
3968;BME280;9221;42.646;23.380;2024-03-08T04:51:26;94602.19;;;6.75;86.60
3968;BME280;9221;42.646;23.380;2024-03-08T04:53:52;94598.19;;;6.60;86.34
3968;BME280;9221;42.646;23.380;2024-03-08T04:56:18;94593.53;;;6.64;87.01
3968;BME280;9221;42.646;23.380;2024-03-08T04:58:45;94606.66;;;6.64;87.66
3968;BME280;9221;42.646;23.380;2024-03-08T05:01:12;94602.22;;;6.64;86.96
3968;BME280;9221;42.646;23.380;2024-03-08T05:03:37;94609.66;;;6.59;86.88
3968;BME280;9221;42.646;23.380;2024-03-08T05:06:03;94603.91;;;6.65;87.35
3968;BME280;9221;42.646;23.380;2024-03-08T05:08:29;94613.56;;;6.65;87.38
3968;BME280;9221;42.646;23.380;2024-03-08T05:10:55;94616.31;;;6.63;87.07
3968;BME280;9221;42.646;23.380;2024-03-08T05:13:21;94605.38;;;6.58;87.16
3968;BME280;9221;42.646;23.380;2024-03-08T05:15:49;94614.03;;;6.58;87.45
3968;BME280;9221;42.646;23.380;2024-03-08T05:18:15;94617.59;;;6.36;88.60
3968;BME280;9221;42.646;23.380;2024-03-08T05:20:41;94617.38;;;6.28;89.53
3968;BME280;9221;42.646;23.380;2024-03-08T05:23:07;94614.41;;;6.21;90.66
3968;BME280;9221;42.646;23.380;2024-03-08T05:25:33;94621.16;;;6.35;90.50
3968;BME280;9221;42.646;23.380;2024-03-08T05:27:59;94628.53;;;6.41;90.73
3968;BME280;9221;42.646;23.380;2024-03-08T05:30:24;94632.66;;;6.12;90.80
3968;BME280;9221;42.646;23.380;2024-03-08T05:32:49;94638.13;;;5.86;91.65
3968;BME280;9221;42.646;23.380;2024-03-08T05:35:15;94645.75;;;5.78;92.83
3968;BME280;9221;42.646;23.380;2024-03-08T05:37:41;94653.09;;;5.95;93.48
3968;BME280;9221;42.646;23.380;2024-03-08T05:40:08;94638.59;;;5.91;92.83
3968;BME280;9221;42.646;23.380;2024-03-08T05:42:36;94646.94;;;5.96;93.11
3968;BME280;9221;42.646;23.380;2024-03-08T05:45:03;94655.72;;;6.06;93.46
3968;BME280;9221;42.646;23.380;2024-03-08T05:47:29;94657.66;;;6.04;92.93
3968;BME280;9221;42.646;23.380;2024-03-08T05:49:54;94661.91;;;5.83;92.17
3968;BME280;9221;42.646;23.380;2024-03-08T05:52:20;94649.31;;;5.54;92.76
3968;BME280;9221;42.646;23.380;2024-03-08T05:54:45;94665.00;;;5.76;92.82
3968;BME280;9221;42.646;23.380;2024-03-08T05:57:12;94669.06;;;5.92;92.47
3968;BME280;9221;42.646;23.380;2024-03-08T05:59:39;94673.22;;;5.95;92.27
3968;BME280;9221;42.646;23.380;2024-03-08T06:02:05;94677.84;;;5.91;91.78
3968;BME280;9221;42.646;23.380;2024-03-08T06:04:30;94681.41;;;5.90;92.23
3968;BME280;9221;42.646;23.380;2024-03-08T06:06:56;94682.84;;;5.94;91.64
3968;BME280;9221;42.646;23.380;2024-03-08T06:09:24;94682.97;;;5.92;92.08
3968;BME280;9221;42.646;23.380;2024-03-08T06:11:50;94682.72;;;5.84;91.92
3968;BME280;9221;42.646;23.380;2024-03-08T06:14:16;94682.00;;;5.82;91.44
3968;BME280;9221;42.646;23.380;2024-03-08T06:16:44;94695.94;;;5.83;91.19
3968;BME280;9221;42.646;23.380;2024-03-08T06:19:10;94693.44;;;5.81;92.08
3968;BME280;9221;42.646;23.380;2024-03-08T06:21:37;94697.81;;;5.81;91.57
3968;BME280;9221;42.646;23.380;2024-03-08T06:24:02;94689.97;;;5.81;92.44
3968;BME280;9221;42.646;23.380;2024-03-08T06:26:28;94696.44;;;5.99;92.13
3968;BME280;9221;42.646;23.380;2024-03-08T06:28:54;94703.53;;;5.97;92.09
3968;BME280;9221;42.646;23.380;2024-03-08T06:31:20;94703.53;;;5.97;91.66
3968;BME280;9221;42.646;23.380;2024-03-08T06:33:45;94700.22;;;5.95;91.58
3968;BME280;9221;42.646;23.380;2024-03-08T06:36:11;94708.06;;;5.95;91.69
3968;BME280;9221;42.646;23.380;2024-03-08T06:38:39;94705.25;;;5.98;91.34
3968;BME280;9221;42.646;23.380;2024-03-08T06:41:09;94711.31;;;5.99;91.29
3968;BME280;9221;42.646;23.380;2024-03-08T06:43:40;94689.16;;;5.91;91.32
3968;BME280;9221;42.646;23.380;2024-03-08T06:46:06;94720.69;;;6.01;91.50
3968;BME280;9221;42.646;23.380;2024-03-08T06:48:32;94741.38;;;5.93;91.48
3968;BME280;9221;42.646;23.380;2024-03-08T06:50:57;94711.38;;;5.97;91.64
3968;BME280;9221;42.646;23.380;2024-03-08T06:53:23;94712.63;;;6.04;91.59
3968;BME280;9221;42.646;23.380;2024-03-08T06:55:50;94705.00;;;6.01;90.82
3968;BME280;9221;42.646;23.380;2024-03-08T06:58:15;94718.66;;;6.16;90.75
3968;BME280;9221;42.646;23.380;2024-03-08T07:00:41;94714.84;;;6.20;90.71
3968;BME280;9221;42.646;23.380;2024-03-08T07:03:08;94718.06;;;6.35;90.13
3968;BME280;9221;42.646;23.380;2024-03-08T07:05:37;94720.47;;;6.16;89.13
3968;BME280;9221;42.646;23.380;2024-03-08T07:08:03;94728.09;;;6.30;89.91
3968;BME280;9221;42.646;23.380;2024-03-08T07:10:29;94717.59;;;6.41;89.45
3968;BME280;9221;42.646;23.380;2024-03-08T07:12:54;94708.94;;;6.18;88.90
3968;BME280;9221;42.646;23.380;2024-03-08T07:15:20;94724.72;;;6.39;88.83
3968;BME280;9221;42.646;23.380;2024-03-08T07:17:46;94721.25;;;6.50;89.03
3968;BME280;9221;42.646;23.380;2024-03-08T07:20:13;94727.44;;;6.60;89.03
3968;BME280;9221;42.646;23.380;2024-03-08T07:22:39;94726.09;;;6.66;88.19
3968;BME280;9221;42.646;23.380;2024-03-08T07:25:05;94729.41;;;6.80;87.51
3968;BME280;9221;42.646;23.380;2024-03-08T07:27:53;94729.69;;;6.65;86.01
3968;BME280;9221;42.646;23.380;2024-03-08T07:30:23;94724.44;;;6.65;85.28
3968;BME280;9221;42.646;23.380;2024-03-08T07:33:07;94730.63;;;6.75;85.71
3968;BME280;9221;42.646;23.380;2024-03-08T07:35:33;94734.16;;;6.86;85.91
3968;BME280;9221;42.646;23.380;2024-03-08T07:38:09;94729.50;;;6.89;84.90
3968;BME280;9221;42.646;23.380;2024-03-08T07:40:38;94735.28;;;7.04;84.26
3968;BME280;9221;42.646;23.380;2024-03-08T07:43:08;94682.44;;;6.88;82.84
3968;BME280;9221;42.646;23.380;2024-03-08T07:45:34;94740.69;;;7.24;81.94
3968;BME280;9221;42.646;23.380;2024-03-08T07:48:01;94739.13;;;7.00;81.81
3968;BME280;9221;42.646;23.380;2024-03-08T07:50:28;94732.28;;;7.09;82.45
3968;BME280;9221;42.646;23.380;2024-03-08T07:52:54;94729.84;;;7.17;81.97
3968;BME280;9221;42.646;23.380;2024-03-08T07:55:20;94736.38;;;7.23;81.06
3968;BME280;9221;42.646;23.380;2024-03-08T07:57:45;94723.28;;;7.23;80.89
3968;BME280;9221;42.646;23.380;2024-03-08T08:00:13;94737.56;;;7.51;81.21
3968;BME280;9221;42.646;23.380;2024-03-08T08:02:44;94732.38;;;7.61;81.05
3968;BME280;9221;42.646;23.380;2024-03-08T08:05:11;94715.03;;;7.49;79.71
3968;BME280;9221;42.646;23.380;2024-03-08T08:07:36;94729.50;;;7.64;79.81
3968;BME280;9221;42.646;23.380;2024-03-08T08:10:02;94722.78;;;7.71;79.88
3968;BME280;9221;42.646;23.380;2024-03-08T08:12:27;94736.97;;;7.90;79.36
3968;BME280;9221;42.646;23.380;2024-03-08T08:14:54;94742.31;;;8.09;78.92
3968;BME280;9221;42.646;23.380;2024-03-08T08:17:20;94725.25;;;8.35;78.80
3968;BME280;9221;42.646;23.380;2024-03-08T08:19:45;94727.16;;;8.54;78.02
3968;BME280;9221;42.646;23.380;2024-03-08T08:22:11;94723.34;;;8.37;76.73
3968;BME280;9221;42.646;23.380;2024-03-08T08:24:36;94721.47;;;8.49;77.03
3968;BME280;9221;42.646;23.380;2024-03-08T08:27:03;94724.47;;;8.44;76.16
3968;BME280;9221;42.646;23.380;2024-03-08T08:29:28;94722.44;;;8.48;76.55
3968;BME280;9221;42.646;23.380;2024-03-08T08:31:57;94735.81;;;8.44;77.03
3968;BME280;9221;42.646;23.380;2024-03-08T08:34:24;94728.06;;;8.43;77.18
3968;BME280;9221;42.646;23.380;2024-03-08T08:36:51;94733.38;;;8.53;75.65
3968;BME280;9221;42.646;23.380;2024-03-08T08:39:18;94731.44;;;8.55;75.23
3968;BME280;9221;42.646;23.380;2024-03-08T08:41:44;94734.25;;;8.63;74.77
3968;BME280;9221;42.646;23.380;2024-03-08T08:44:09;94733.44;;;8.72;74.34
3968;BME280;9221;42.646;23.380;2024-03-08T08:46:37;94733.13;;;8.56;74.94
3968;BME280;9221;42.646;23.380;2024-03-08T08:49:03;94728.03;;;8.64;75.16
3968;BME280;9221;42.646;23.380;2024-03-08T08:51:29;94722.34;;;8.78;74.33
3968;BME280;9221;42.646;23.380;2024-03-08T08:53:55;94727.38;;;9.01;73.74
3968;BME280;9221;42.646;23.380;2024-03-08T08:56:21;94721.28;;;9.30;73.00
3968;BME280;9221;42.646;23.380;2024-03-08T08:58:47;94725.56;;;9.51;72.04
3968;BME280;9221;42.646;23.380;2024-03-08T09:01:14;94720.09;;;9.91;71.32
3968;BME280;9221;42.646;23.380;2024-03-08T09:03:40;94725.22;;;10.40;70.36
3968;BME280;9221;42.646;23.380;2024-03-08T09:06:09;94728.16;;;10.65;67.50
3968;BME280;9221;42.646;23.380;2024-03-08T09:08:38;94719.31;;;11.02;66.73
3968;BME280;9221;42.646;23.380;2024-03-08T09:11:04;94723.38;;;11.50;64.91
3968;BME280;9221;42.646;23.380;2024-03-08T09:13:30;94726.72;;;11.79;63.38
3968;BME280;9221;42.646;23.380;2024-03-08T09:15:56;94715.47;;;12.64;61.63
3968;BME280;9221;42.646;23.380;2024-03-08T09:18:22;94719.00;;;13.48;58.28
3968;BME280;9221;42.646;23.380;2024-03-08T09:20:49;94722.31;;;14.00;54.86
3968;BME280;9221;42.646;23.380;2024-03-08T09:23:14;94718.19;;;13.81;56.22
3968;BME280;9221;42.646;23.380;2024-03-08T09:25:42;94714.03;;;14.51;54.68
3968;BME280;9221;42.646;23.380;2024-03-08T09:28:09;94701.09;;;13.92;54.73
3968;BME280;9221;42.646;23.380;2024-03-08T09:30:37;94713.22;;;13.86;54.35
3968;BME280;9221;42.646;23.380;2024-03-08T09:33:04;94712.03;;;13.64;53.54
3968;BME280;9221;42.646;23.380;2024-03-08T09:35:29;94716.47;;;13.14;54.18
3968;BME280;9221;42.646;23.380;2024-03-08T09:37:55;94714.84;;;12.70;54.23
3968;BME280;9221;42.646;23.380;2024-03-08T09:40:21;94713.56;;;12.40;55.71
3968;BME280;9221;42.646;23.380;2024-03-08T09:42:49;94706.34;;;12.50;56.88
3968;BME280;9221;42.646;23.380;2024-03-08T09:45:14;94715.56;;;12.97;56.78
3968;BME280;9221;42.646;23.380;2024-03-08T09:47:44;94681.06;;;13.73;54.31
3968;BME280;9221;42.646;23.380;2024-03-08T09:50:10;94713.94;;;14.28;51.83
3968;BME280;9221;42.646;23.380;2024-03-08T09:52:41;94707.13;;;14.33;52.15
3968;BME280;9221;42.646;23.380;2024-03-08T09:55:10;94705.91;;;12.71;55.77
3968;BME280;9221;42.646;23.380;2024-03-08T09:57:39;94693.78;;;11.65;59.23
3968;BME280;9221;42.646;23.380;2024-03-08T10:00:06;94711.63;;;11.71;59.22
3968;BME280;9221;42.646;23.380;2024-03-08T10:02:46;94706.78;;;11.84;59.36
3968;BME280;9221;42.646;23.380;2024-03-08T10:05:13;94718.16;;;11.59;59.27
3968;BME280;9221;42.646;23.380;2024-03-08T10:07:39;94697.88;;;11.41;60.73
3968;BME280;9221;42.646;23.380;2024-03-08T10:10:05;94715.81;;;11.56;61.36
3968;BME280;9221;42.646;23.380;2024-03-08T10:12:30;94711.00;;;11.33;60.81
3968;BME280;9221;42.646;23.380;2024-03-08T10:14:58;94665.19;;;10.98;61.14
3968;BME280;9221;42.646;23.380;2024-03-08T10:17:24;94708.75;;;11.38;60.95
3968;BME280;9221;42.646;23.380;2024-03-08T10:19:50;94712.00;;;11.32;61.13
3968;BME280;9221;42.646;23.380;2024-03-08T10:22:17;94711.56;;;11.18;62.19
3968;BME280;9221;42.646;23.380;2024-03-08T10:24:45;94713.16;;;11.11;62.45
3968;BME280;9221;42.646;23.380;2024-03-08T10:27:11;94701.34;;;11.86;63.01
3968;BME280;9221;42.646;23.380;2024-03-08T10:29:36;94708.47;;;12.46;58.99
3968;BME280;9221;42.646;23.380;2024-03-08T10:32:04;94695.66;;;12.25;59.00
3968;BME280;9221;42.646;23.380;2024-03-08T10:34:32;94707.50;;;12.13;59.58
3968;BME280;9221;42.646;23.380;2024-03-08T10:37:03;94705.50;;;12.15;59.36
3968;BME280;9221;42.646;23.380;2024-03-08T10:39:34;94677.41;;;11.88;58.36
3968;BME280;9221;42.646;23.380;2024-03-08T10:42:02;94696.47;;;12.26;57.95
3968;BME280;9221;42.646;23.380;2024-03-08T10:47:02;94687.31;;;12.46;56.62
3968;BME280;9221;42.646;23.380;2024-03-08T10:49:32;94694.28;;;12.13;56.34
3968;BME280;9221;42.646;23.380;2024-03-08T10:52:05;94685.91;;;11.73;56.52
3968;BME280;9221;42.646;23.380;2024-03-08T10:54:34;94686.69;;;12.52;56.11
3968;BME280;9221;42.646;23.380;2024-03-08T10:57:05;94637.19;;;13.12;54.32
3968;BME280;9221;42.646;23.380;2024-03-08T10:59:32;94680.91;;;13.66;52.26
3968;BME280;9221;42.646;23.380;2024-03-08T11:01:59;94678.28;;;13.66;51.84
3968;BME280;9221;42.646;23.380;2024-03-08T11:04:25;94682.19;;;13.12;53.68
3968;BME280;9221;42.646;23.380;2024-03-08T11:06:52;94678.84;;;12.94;55.07
3968;BME280;9221;42.646;23.380;2024-03-08T11:09:28;94672.78;;;12.59;55.88
3968;BME280;9221;42.646;23.380;2024-03-08T11:14:48;94674.84;;;11.96;58.01
3968;BME280;9221;42.646;23.380;2024-03-08T11:17:20;94659.44;;;11.65;58.57
3968;BME280;9221;42.646;23.380;2024-03-08T11:19:48;94660.97;;;12.28;58.93
3968;BME280;9221;42.646;23.380;2024-03-08T11:22:27;94650.72;;;13.01;56.26
3968;BME280;9221;42.646;23.380;2024-03-08T11:24:53;94629.03;;;13.80;53.58
3968;BME280;9221;42.646;23.380;2024-03-08T11:27:19;94661.84;;;14.35;51.66
3968;BME280;9221;42.646;23.380;2024-03-08T11:30:04;94657.44;;;14.19;51.69
3968;BME280;9221;42.646;23.380;2024-03-08T11:32:50;94647.50;;;14.21;52.41
3968;BME280;9221;42.646;23.380;2024-03-08T11:35:22;94637.25;;;14.49;51.30
3968;BME280;9221;42.646;23.380;2024-03-08T11:37:50;94656.28;;;15.62;49.23
3968;BME280;9221;42.646;23.380;2024-03-08T11:40:16;94648.22;;;16.38;45.78
3968;BME280;9221;42.646;23.380;2024-03-08T11:42:46;94643.22;;;16.95;43.81
3968;BME280;9221;42.646;23.380;2024-03-08T11:45:16;94639.38;;;17.69;42.74
3968;BME280;9221;42.646;23.380;2024-03-08T11:47:46;94626.22;;;18.24;41.43
3968;BME280;9221;42.646;23.380;2024-03-08T11:50:15;94634.47;;;18.30;39.96
3968;BME280;9221;42.646;23.380;2024-03-08T11:52:40;94639.63;;;18.31;40.59
3968;BME280;9221;42.646;23.380;2024-03-08T11:55:08;94641.22;;;18.25;40.53
3968;BME280;9221;42.646;23.380;2024-03-08T11:57:33;94632.81;;;17.93;41.41
3968;BME280;9221;42.646;23.380;2024-03-08T11:59:59;94630.72;;;17.61;43.54
3968;BME280;9221;42.646;23.380;2024-03-08T12:02:34;94633.13;;;17.12;42.01
3968;BME280;9221;42.646;23.380;2024-03-08T12:05:07;94628.84;;;16.60;44.22
3968;BME280;9221;42.646;23.380;2024-03-08T12:07:35;94631.47;;;16.74;42.74
3968;BME280;9221;42.646;23.380;2024-03-08T12:10:19;94635.53;;;17.29;42.36
3968;BME280;9221;42.646;23.380;2024-03-08T12:12:51;94664.28;;;17.12;41.59
3968;BME280;9221;42.646;23.380;2024-03-08T12:15:18;94624.25;;;17.48;41.10
3968;BME280;9221;42.646;23.380;2024-03-08T12:17:44;94625.53;;;16.57;41.65
3968;BME280;9221;42.646;23.380;2024-03-08T12:20:24;94532.38;;;16.42;41.68
3968;BME280;9221;42.646;23.380;2024-03-08T12:22:55;94636.13;;;16.87;42.18
3968;BME280;9221;42.646;23.380;2024-03-08T12:25:29;94632.19;;;17.20;41.26
3968;BME280;9221;42.646;23.380;2024-03-08T12:27:56;94624.56;;;17.17;40.87
3968;BME280;9221;42.646;23.380;2024-03-08T12:30:26;94607.31;;;16.76;41.68
3968;BME280;9221;42.646;23.380;2024-03-08T12:32:57;94559.31;;;16.33;41.79
3968;BME280;9221;42.646;23.380;2024-03-08T12:35:24;94632.34;;;16.45;41.74
3968;BME280;9221;42.646;23.380;2024-03-08T12:37:52;94599.72;;;15.15;44.42
3968;BME280;9221;42.646;23.380;2024-03-08T12:40:19;94617.00;;;14.56;46.62
3968;BME280;9221;42.646;23.380;2024-03-08T12:42:52;94610.81;;;14.33;47.93
3968;BME280;9221;42.646;23.380;2024-03-08T12:45:17;94616.47;;;14.30;47.66
3968;BME280;9221;42.646;23.380;2024-03-08T12:47:43;94578.09;;;14.01;46.98
3968;BME280;9221;42.646;23.380;2024-03-08T12:50:10;94615.84;;;14.19;46.61
3968;BME280;9221;42.646;23.380;2024-03-08T12:52:36;94609.06;;;13.36;48.02
3968;BME280;9221;42.646;23.380;2024-03-08T12:55:02;94610.38;;;12.99;50.08
3968;BME280;9221;42.646;23.380;2024-03-08T12:57:28;94603.53;;;12.63;50.82
3968;BME280;9221;42.646;23.380;2024-03-08T12:59:53;94564.72;;;12.05;52.57
3968;BME280;9221;42.646;23.380;2024-03-08T13:02:19;94606.38;;;11.84;53.79
3968;BME280;9221;42.646;23.380;2024-03-08T13:04:46;94605.38;;;12.12;54.08
3968;BME280;9221;42.646;23.380;2024-03-08T13:07:21;94610.66;;;12.12;54.30
3968;BME280;9221;42.646;23.380;2024-03-08T13:09:46;94608.59;;;12.32;53.66
3968;BME280;9221;42.646;23.380;2024-03-08T13:12:12;94603.47;;;12.30;52.21
3968;BME280;9221;42.646;23.380;2024-03-08T13:14:37;94612.72;;;12.26;52.71
3968;BME280;9221;42.646;23.380;2024-03-08T13:17:05;94604.09;;;12.24;51.99
3968;BME280;9221;42.646;23.380;2024-03-08T13:19:36;94606.84;;;11.80;53.32
3968;BME280;9221;42.646;23.380;2024-03-08T13:22:01;94613.38;;;11.41;54.46